sensor_id;sensor_type;location;lat;lon;timestamp;P1;durP1;ratioP1;P2;durP2;ratioP2
21432;SDS011;18592;49.708;10.900;2023-04-02T00:03:05;0.63;;;0.50;;
21432;SDS011;18592;49.708;10.900;2023-04-02T00:09:31;1.00;;;0.75;;
21432;SDS011;18592;49.708;10.900;2023-04-02T00:11:40;0.80;;;0.55;;
21432;SDS011;18592;49.708;10.900;2023-04-02T00:13:45;1.40;;;0.60;;
21432;SDS011;18592;49.708;10.900;2023-04-02T00:15:56;0.75;;;0.60;;
21432;SDS011;18592;49.708;10.900;2023-04-02T00:17:58;0.60;;;0.60;;
21432;SDS011;18592;49.708;10.900;2023-04-02T00:20:05;0.75;;;0.60;;
21432;SDS011;18592;49.708;10.900;2023-04-02T00:22:15;1.50;;;0.80;;
21432;SDS011;18592;49.708;10.900;2023-04-02T00:24:21;1.58;;;0.80;;
21432;SDS011;18592;49.708;10.900;2023-04-02T00:26:30;2.00;;;0.80;;
21432;SDS011;18592;49.708;10.900;2023-04-02T00:28:41;1.25;;;0.90;;
21432;SDS011;18592;49.708;10.900;2023-04-02T00:30:49;0.60;;;0.60;;
21432;SDS011;18592;49.708;10.900;2023-04-02T00:32:53;1.75;;;0.93;;
21432;SDS011;18592;49.708;10.900;2023-04-02T00:34:54;0.90;;;0.70;;
21432;SDS011;18592;49.708;10.900;2023-04-02T00:36:57;2.08;;;0.60;;
21432;SDS011;18592;49.708;10.900;2023-04-02T00:39:03;1.20;;;0.85;;
21432;SDS011;18592;49.708;10.900;2023-04-02T00:41:15;1.98;;;0.85;;
21432;SDS011;18592;49.708;10.900;2023-04-02T00:43:34;1.65;;;0.90;;
21432;SDS011;18592;49.708;10.900;2023-04-02T00:45:38;1.52;;;0.80;;
21432;SDS011;18592;49.708;10.900;2023-04-02T00:47:42;0.90;;;0.60;;
21432;SDS011;18592;49.708;10.900;2023-04-02T00:49:43;1.10;;;0.60;;
21432;SDS011;18592;49.708;10.900;2023-04-02T00:51:53;1.13;;;0.80;;
21432;SDS011;18592;49.708;10.900;2023-04-02T00:53:59;1.02;;;0.70;;
21432;SDS011;18592;49.708;10.900;2023-04-02T00:56:04;0.90;;;0.60;;
21432;SDS011;18592;49.708;10.900;2023-04-02T00:58:22;1.48;;;0.80;;
21432;SDS011;18592;49.708;10.900;2023-04-02T01:00:29;1.92;;;0.85;;
21432;SDS011;18592;49.708;10.900;2023-04-02T01:02:35;1.75;;;0.88;;
21432;SDS011;18592;49.708;10.900;2023-04-02T01:04:41;0.70;;;0.68;;
21432;SDS011;18592;49.708;10.900;2023-04-02T01:06:54;0.82;;;0.82;;
21432;SDS011;18592;49.708;10.900;2023-04-02T01:18:23;0.70;;;0.70;;
21432;SDS011;18592;49.708;10.900;2023-04-02T01:25:06;1.83;;;1.00;;
21432;SDS011;18592;49.708;10.900;2023-04-02T01:27:22;2.08;;;1.02;;
21432;SDS011;18592;49.708;10.900;2023-04-02T01:29:36;1.27;;;1.17;;
21432;SDS011;18592;49.708;10.900;2023-04-02T01:31:40;1.35;;;1.00;;
21432;SDS011;18592;49.708;10.900;2023-04-02T01:33:44;3.13;;;1.30;;
21432;SDS011;18592;49.708;10.900;2023-04-02T01:35:51;1.73;;;1.33;;
21432;SDS011;18592;49.708;10.900;2023-04-02T01:40:15;1.63;;;1.00;;
21432;SDS011;18592;49.708;10.900;2023-04-02T01:44:48;1.25;;;1.00;;
21432;SDS011;18592;49.708;10.900;2023-04-02T01:46:51;1.45;;;0.90;;
21432;SDS011;18592;49.708;10.900;2023-04-02T01:48:53;1.10;;;0.85;;
21432;SDS011;18592;49.708;10.900;2023-04-02T01:50:56;1.02;;;0.90;;
21432;SDS011;18592;49.708;10.900;2023-04-02T01:53:02;2.85;;;1.15;;
21432;SDS011;18592;49.708;10.900;2023-04-02T01:55:11;1.13;;;0.90;;
21432;SDS011;18592;49.708;10.900;2023-04-02T01:57:13;1.67;;;1.00;;
21432;SDS011;18592;49.708;10.900;2023-04-02T01:59:18;1.38;;;0.88;;
21432;SDS011;18592;49.708;10.900;2023-04-02T02:01:27;1.60;;;0.90;;
21432;SDS011;18592;49.708;10.900;2023-04-02T02:03:36;1.73;;;1.05;;
21432;SDS011;18592;49.708;10.900;2023-04-02T02:05:41;1.15;;;0.90;;
21432;SDS011;18592;49.708;10.900;2023-04-02T02:07:43;2.42;;;1.05;;
21432;SDS011;18592;49.708;10.900;2023-04-02T02:09:48;1.67;;;0.90;;
21432;SDS011;18592;49.708;10.900;2023-04-02T02:11:55;1.25;;;0.98;;
21432;SDS011;18592;49.708;10.900;2023-04-02T02:14:03;1.35;;;0.90;;
21432;SDS011;18592;49.708;10.900;2023-04-02T02:16:13;1.05;;;0.90;;
21432;SDS011;18592;49.708;10.900;2023-04-02T02:18:19;1.05;;;0.95;;
21432;SDS011;18592;49.708;10.900;2023-04-02T02:20:23;1.20;;;1.10;;
21432;SDS011;18592;49.708;10.900;2023-04-02T02:22:28;1.77;;;1.05;;
21432;SDS011;18592;49.708;10.900;2023-04-02T02:24:42;1.55;;;1.00;;
21432;SDS011;18592;49.708;10.900;2023-04-02T02:26:49;1.20;;;1.10;;
21432;SDS011;18592;49.708;10.900;2023-04-02T02:29:02;0.90;;;0.80;;
21432;SDS011;18592;49.708;10.900;2023-04-02T02:31:13;1.33;;;1.10;;
21432;SDS011;18592;49.708;10.900;2023-04-02T02:33:31;1.70;;;1.10;;
21432;SDS011;18592;49.708;10.900;2023-04-02T02:35:51;1.20;;;0.98;;
21432;SDS011;18592;49.708;10.900;2023-04-02T02:40:53;2.03;;;1.05;;
21432;SDS011;18592;49.708;10.900;2023-04-02T02:43:00;2.15;;;0.98;;
21432;SDS011;18592;49.708;10.900;2023-04-02T02:45:06;1.10;;;1.00;;
21432;SDS011;18592;49.708;10.900;2023-04-02T02:47:17;1.52;;;1.10;;
21432;SDS011;18592;49.708;10.900;2023-04-02T02:49:24;1.00;;;0.90;;
21432;SDS011;18592;49.708;10.900;2023-04-02T02:51:41;1.65;;;1.00;;
21432;SDS011;18592;49.708;10.900;2023-04-02T02:53:53;1.25;;;0.85;;
21432;SDS011;18592;49.708;10.900;2023-04-02T02:56:03;1.20;;;0.95;;
21432;SDS011;18592;49.708;10.900;2023-04-02T02:58:25;1.23;;;0.95;;
21432;SDS011;18592;49.708;10.900;2023-04-02T03:00:41;1.30;;;1.00;;
21432;SDS011;18592;49.708;10.900;2023-04-02T03:02:47;1.67;;;0.85;;
21432;SDS011;18592;49.708;10.900;2023-04-02T03:04:51;0.77;;;0.77;;
21432;SDS011;18592;49.708;10.900;2023-04-02T03:07:06;1.10;;;1.00;;
21432;SDS011;18592;49.708;10.900;2023-04-02T03:09:12;0.98;;;0.80;;
21432;SDS011;18592;49.708;10.900;2023-04-02T03:11:41;1.10;;;1.00;;
21432;SDS011;18592;49.708;10.900;2023-04-02T03:13:55;0.80;;;0.80;;
21432;SDS011;18592;49.708;10.900;2023-04-02T03:23:17;1.95;;;0.85;;
21432;SDS011;18592;49.708;10.900;2023-04-02T03:27:45;1.58;;;0.90;;
21432;SDS011;18592;49.708;10.900;2023-04-02T03:29:57;1.27;;;1.08;;
21432;SDS011;18592;49.708;10.900;2023-04-02T03:32:31;1.35;;;1.08;;
21432;SDS011;18592;49.708;10.900;2023-04-02T03:34:42;2.45;;;1.20;;
21432;SDS011;18592;49.708;10.900;2023-04-02T03:36:53;1.67;;;1.33;;
21432;SDS011;18592;49.708;10.900;2023-04-02T03:39:08;1.70;;;0.90;;
21432;SDS011;18592;49.708;10.900;2023-04-02T03:42:04;1.48;;;1.10;;
21432;SDS011;18592;49.708;10.900;2023-04-02T03:43:55;1.25;;;0.85;;
21432;SDS011;18592;49.708;10.900;2023-04-02T03:46:10;1.20;;;0.90;;
21432;SDS011;18592;49.708;10.900;2023-04-02T03:50:38;1.48;;;1.17;;
21432;SDS011;18592;49.708;10.900;2023-04-02T03:52:44;1.15;;;1.05;;
21432;SDS011;18592;49.708;10.900;2023-04-02T03:54:48;1.10;;;1.00;;
21432;SDS011;18592;49.708;10.900;2023-04-02T03:56:57;1.38;;;1.20;;
21432;SDS011;18592;49.708;10.900;2023-04-02T03:59:15;3.63;;;1.23;;
21432;SDS011;18592;49.708;10.900;2023-04-02T04:01:30;2.53;;;1.40;;
21432;SDS011;18592;49.708;10.900;2023-04-02T04:03:41;2.20;;;1.30;;
21432;SDS011;18592;49.708;10.900;2023-04-02T04:05:50;1.80;;;0.88;;
21432;SDS011;18592;49.708;10.900;2023-04-02T04:08:01;1.67;;;1.15;;
21432;SDS011;18592;49.708;10.900;2023-04-02T04:10:06;1.63;;;1.13;;
21432;SDS011;18592;49.708;10.900;2023-04-02T04:12:26;1.08;;;0.95;;
21432;SDS011;18592;49.708;10.900;2023-04-02T04:14:34;2.28;;;1.00;;
21432;SDS011;18592;49.708;10.900;2023-04-02T04:16:51;1.88;;;1.10;;
21432;SDS011;18592;49.708;10.900;2023-04-02T04:19:09;1.73;;;1.00;;
21432;SDS011;18592;49.708;10.900;2023-04-02T04:21:39;3.70;;;1.17;;
21432;SDS011;18592;49.708;10.900;2023-04-02T04:23:51;1.60;;;1.35;;
21432;SDS011;18592;49.708;10.900;2023-04-02T04:25:56;1.90;;;1.20;;
21432;SDS011;18592;49.708;10.900;2023-04-02T04:28:21;1.50;;;1.20;;
21432;SDS011;18592;49.708;10.900;2023-04-02T04:30:36;1.40;;;1.00;;
21432;SDS011;18592;49.708;10.900;2023-04-02T04:32:55;1.25;;;1.00;;
21432;SDS011;18592;49.708;10.900;2023-04-02T04:35:03;1.13;;;1.02;;
21432;SDS011;18592;49.708;10.900;2023-04-02T04:37:22;1.35;;;1.13;;
21432;SDS011;18592;49.708;10.900;2023-04-02T04:39:34;1.38;;;0.90;;
21432;SDS011;18592;49.708;10.900;2023-04-02T04:41:41;1.85;;;1.20;;
21432;SDS011;18592;49.708;10.900;2023-04-02T04:43:47;2.05;;;1.00;;
21432;SDS011;18592;49.708;10.900;2023-04-02T04:45:59;1.33;;;1.05;;
21432;SDS011;18592;49.708;10.900;2023-04-02T04:48:47;2.60;;;1.25;;
21432;SDS011;18592;49.708;10.900;2023-04-02T04:53:12;2.25;;;1.15;;
21432;SDS011;18592;49.708;10.900;2023-04-02T04:55:26;2.47;;;0.95;;
21432;SDS011;18592;49.708;10.900;2023-04-02T04:57:34;1.10;;;1.00;;
21432;SDS011;18592;49.708;10.900;2023-04-02T04:59:43;1.58;;;1.20;;
21432;SDS011;18592;49.708;10.900;2023-04-02T05:01:54;1.80;;;1.05;;
21432;SDS011;18592;49.708;10.900;2023-04-02T05:04:03;2.20;;;1.30;;
21432;SDS011;18592;49.708;10.900;2023-04-02T05:06:08;3.83;;;1.30;;
21432;SDS011;18592;49.708;10.900;2023-04-02T05:08:25;1.85;;;1.35;;
21432;SDS011;18592;49.708;10.900;2023-04-02T05:10:44;1.27;;;1.17;;
21432;SDS011;18592;49.708;10.900;2023-04-02T05:12:51;2.03;;;1.02;;
21432;SDS011;18592;49.708;10.900;2023-04-02T05:15:03;2.20;;;1.17;;
21432;SDS011;18592;49.708;10.900;2023-04-02T05:17:34;2.63;;;1.50;;
21432;SDS011;18592;49.708;10.900;2023-04-02T05:19:45;1.60;;;1.38;;
21432;SDS011;18592;49.708;10.900;2023-04-02T05:22:03;1.63;;;1.10;;
21432;SDS011;18592;49.708;10.900;2023-04-02T05:24:26;1.20;;;1.10;;
21432;SDS011;18592;49.708;10.900;2023-04-02T05:26:32;1.10;;;1.00;;
21432;SDS011;18592;49.708;10.900;2023-04-02T05:29:00;2.70;;;1.30;;
21432;SDS011;18592;49.708;10.900;2023-04-02T05:31:14;1.50;;;1.30;;
21432;SDS011;18592;49.708;10.900;2023-04-02T05:33:28;1.42;;;1.23;;
21432;SDS011;18592;49.708;10.900;2023-04-02T05:35:35;1.35;;;1.25;;
21432;SDS011;18592;49.708;10.900;2023-04-02T05:37:42;1.98;;;1.20;;
21432;SDS011;18592;49.708;10.900;2023-04-02T05:39:48;1.40;;;1.30;;
21432;SDS011;18592;49.708;10.900;2023-04-02T05:41:58;1.30;;;1.00;;
21432;SDS011;18592;49.708;10.900;2023-04-02T05:44:23;1.30;;;1.20;;
21432;SDS011;18592;49.708;10.900;2023-04-02T05:46:30;1.35;;;1.23;;
21432;SDS011;18592;49.708;10.900;2023-04-02T05:48:40;1.40;;;1.30;;
21432;SDS011;18592;49.708;10.900;2023-04-02T05:50:48;1.15;;;1.05;;
21432;SDS011;18592;49.708;10.900;2023-04-02T05:53:05;1.48;;;1.17;;
21432;SDS011;18592;49.708;10.900;2023-04-02T05:57:20;1.90;;;1.45;;
21432;SDS011;18592;49.708;10.900;2023-04-02T05:59:44;1.23;;;1.02;;
21432;SDS011;18592;49.708;10.900;2023-04-02T06:01:56;1.90;;;1.30;;
21432;SDS011;18592;49.708;10.900;2023-04-02T06:04:51;2.47;;;1.00;;
21432;SDS011;18592;49.708;10.900;2023-04-02T06:09:06;1.55;;;1.00;;
21432;SDS011;18592;49.708;10.900;2023-04-02T06:11:17;1.58;;;1.10;;
21432;SDS011;18592;49.708;10.900;2023-04-02T06:13:25;1.17;;;1.08;;
21432;SDS011;18592;49.708;10.900;2023-04-02T06:15:29;1.15;;;0.90;;
21432;SDS011;18592;49.708;10.900;2023-04-02T06:20:19;1.25;;;1.15;;
21432;SDS011;18592;49.708;10.900;2023-04-02T06:24:36;1.15;;;1.02;;
21432;SDS011;18592;49.708;10.900;2023-04-02T06:26:50;1.20;;;1.10;;
21432;SDS011;18592;49.708;10.900;2023-04-02T06:28:59;2.90;;;1.25;;
21432;SDS011;18592;49.708;10.900;2023-04-02T06:31:07;1.88;;;1.23;;
21432;SDS011;18592;49.708;10.900;2023-04-02T06:33:17;1.35;;;1.10;;
21432;SDS011;18592;49.708;10.900;2023-04-02T06:35:20;2.47;;;1.23;;
21432;SDS011;18592;49.708;10.900;2023-04-02T06:37:39;2.10;;;1.25;;
21432;SDS011;18592;49.708;10.900;2023-04-02T06:39:50;2.13;;;1.73;;
21432;SDS011;18592;49.708;10.900;2023-04-02T06:41:53;2.30;;;1.50;;
21432;SDS011;18592;49.708;10.900;2023-04-02T06:44:34;1.80;;;1.50;;
21432;SDS011;18592;49.708;10.900;2023-04-02T06:47:03;1.30;;;1.20;;
21432;SDS011;18592;49.708;10.900;2023-04-02T06:49:22;1.50;;;1.10;;
21432;SDS011;18592;49.708;10.900;2023-04-02T06:51:33;1.38;;;0.90;;
21432;SDS011;18592;49.708;10.900;2023-04-02T06:53:38;1.40;;;0.95;;
21432;SDS011;18592;49.708;10.900;2023-04-02T06:55:50;0.80;;;0.80;;
21432;SDS011;18592;49.708;10.900;2023-04-02T06:57:59;1.15;;;1.05;;
21432;SDS011;18592;49.708;10.900;2023-04-02T07:00:02;1.08;;;0.60;;
21432;SDS011;18592;49.708;10.900;2023-04-02T07:02:37;1.33;;;0.63;;
21432;SDS011;18592;49.708;10.900;2023-04-02T07:04:41;0.80;;;0.70;;
21432;SDS011;18592;49.708;10.900;2023-04-02T07:06:46;2.45;;;0.60;;
21432;SDS011;18592;49.708;10.900;2023-04-02T07:08:49;0.50;;;0.50;;
21432;SDS011;18592;49.708;10.900;2023-04-02T07:10:55;0.50;;;0.40;;
21432;SDS011;18592;49.708;10.900;2023-04-02T07:12:58;0.70;;;0.38;;
21432;SDS011;18592;49.708;10.900;2023-04-02T07:15:03;0.32;;;0.32;;
21432;SDS011;18592;49.708;10.900;2023-04-02T07:17:05;0.95;;;0.45;;
21432;SDS011;18592;49.708;10.900;2023-04-02T07:19:08;0.52;;;0.40;;
21432;SDS011;18592;49.708;10.900;2023-04-02T07:21:20;0.73;;;0.40;;
21432;SDS011;18592;49.708;10.900;2023-04-02T07:23:22;0.55;;;0.50;;
21432;SDS011;18592;49.708;10.900;2023-04-02T07:25:38;1.13;;;0.80;;
21432;SDS011;18592;49.708;10.900;2023-04-02T07:27:45;2.15;;;1.42;;
21432;SDS011;18592;49.708;10.900;2023-04-02T07:29:56;1.45;;;1.23;;
21432;SDS011;18592;49.708;10.900;2023-04-02T07:31:57;2.95;;;1.95;;
21432;SDS011;18592;49.708;10.900;2023-04-02T07:33:59;3.97;;;2.65;;
21432;SDS011;18592;49.708;10.900;2023-04-02T07:36:04;6.47;;;3.47;;
21432;SDS011;18592;49.708;10.900;2023-04-02T07:38:06;6.35;;;3.72;;
21432;SDS011;18592;49.708;10.900;2023-04-02T07:40:15;4.90;;;3.38;;
21432;SDS011;18592;49.708;10.900;2023-04-02T07:42:21;6.82;;;3.72;;
21432;SDS011;18592;49.708;10.900;2023-04-02T07:44:22;5.72;;;3.30;;
21432;SDS011;18592;49.708;10.900;2023-04-02T07:46:24;4.28;;;2.63;;
21432;SDS011;18592;49.708;10.900;2023-04-02T07:48:28;4.30;;;2.58;;
21432;SDS011;18592;49.708;10.900;2023-04-02T07:50:30;3.35;;;2.00;;
21432;SDS011;18592;49.708;10.900;2023-04-02T07:52:31;2.85;;;1.75;;
21432;SDS011;18592;49.708;10.900;2023-04-02T07:54:33;3.08;;;1.92;;
21432;SDS011;18592;49.708;10.900;2023-04-02T07:56:36;2.47;;;1.52;;
21432;SDS011;18592;49.708;10.900;2023-04-02T07:58:41;3.15;;;2.00;;
21432;SDS011;18592;49.708;10.900;2023-04-02T08:00:42;2.67;;;1.83;;
21432;SDS011;18592;49.708;10.900;2023-04-02T08:02:44;1.70;;;1.40;;
21432;SDS011;18592;49.708;10.900;2023-04-02T08:04:46;1.38;;;1.27;;
21432;SDS011;18592;49.708;10.900;2023-04-02T08:06:48;2.28;;;1.10;;
21432;SDS011;18592;49.708;10.900;2023-04-02T08:08:50;1.30;;;1.10;;
21432;SDS011;18592;49.708;10.900;2023-04-02T08:10:52;1.30;;;1.20;;
21432;SDS011;18592;49.708;10.900;2023-04-02T08:12:57;2.08;;;1.42;;
21432;SDS011;18592;49.708;10.900;2023-04-02T08:15:01;2.17;;;1.48;;
21432;SDS011;18592;49.708;10.900;2023-04-02T08:17:05;1.88;;;1.35;;
21432;SDS011;18592;49.708;10.900;2023-04-02T08:19:07;1.60;;;1.20;;
21432;SDS011;18592;49.708;10.900;2023-04-02T08:21:09;2.20;;;1.38;;
21432;SDS011;18592;49.708;10.900;2023-04-02T08:23:17;1.50;;;1.10;;
21432;SDS011;18592;49.708;10.900;2023-04-02T08:25:19;1.75;;;1.30;;
21432;SDS011;18592;49.708;10.900;2023-04-02T08:27:21;2.85;;;1.85;;
21432;SDS011;18592;49.708;10.900;2023-04-02T08:29:26;2.47;;;1.45;;
21432;SDS011;18592;49.708;10.900;2023-04-02T08:31:32;2.53;;;1.38;;
21432;SDS011;18592;49.708;10.900;2023-04-02T08:33:34;1.92;;;1.10;;
21432;SDS011;18592;49.708;10.900;2023-04-02T08:35:35;2.42;;;1.60;;
21432;SDS011;18592;49.708;10.900;2023-04-02T08:37:38;2.10;;;1.70;;
21432;SDS011;18592;49.708;10.900;2023-04-02T08:39:39;3.25;;;1.88;;
21432;SDS011;18592;49.708;10.900;2023-04-02T08:41:46;1.98;;;1.55;;
21432;SDS011;18592;49.708;10.900;2023-04-02T08:44:08;2.88;;;1.50;;
21432;SDS011;18592;49.708;10.900;2023-04-02T08:46:44;1.45;;;0.90;;
21432;SDS011;18592;49.708;10.900;2023-04-02T08:49:10;1.85;;;1.02;;
21432;SDS011;18592;49.708;10.900;2023-04-02T08:51:18;1.55;;;0.95;;
21432;SDS011;18592;49.708;10.900;2023-04-02T08:53:24;0.98;;;0.75;;
21432;SDS011;18592;49.708;10.900;2023-04-02T08:55:40;0.95;;;0.75;;
21432;SDS011;18592;49.708;10.900;2023-04-02T08:58:03;1.42;;;0.90;;
21432;SDS011;18592;49.708;10.900;2023-04-02T09:02:48;1.27;;;0.90;;
21432;SDS011;18592;49.708;10.900;2023-04-02T09:04:57;1.52;;;1.15;;
21432;SDS011;18592;49.708;10.900;2023-04-02T09:07:03;1.25;;;1.15;;
21432;SDS011;18592;49.708;10.900;2023-04-02T09:09:17;1.30;;;1.00;;
21432;SDS011;18592;49.708;10.900;2023-04-02T09:11:29;2.00;;;1.33;;
21432;SDS011;18592;49.708;10.900;2023-04-02T09:13:33;1.30;;;1.00;;
21432;SDS011;18592;49.708;10.900;2023-04-02T09:15:38;0.90;;;0.75;;
21432;SDS011;18592;49.708;10.900;2023-04-02T09:17:39;1.15;;;0.80;;
21432;SDS011;18592;49.708;10.900;2023-04-02T09:22:23;1.60;;;0.93;;
21432;SDS011;18592;49.708;10.900;2023-04-02T09:24:29;1.70;;;1.33;;
21432;SDS011;18592;49.708;10.900;2023-04-02T09:26:33;1.35;;;1.00;;
21432;SDS011;18592;49.708;10.900;2023-04-02T09:28:38;1.60;;;1.13;;
21432;SDS011;18592;49.708;10.900;2023-04-02T09:33:03;1.02;;;0.90;;
21432;SDS011;18592;49.708;10.900;2023-04-02T09:35:28;0.85;;;0.80;;
21432;SDS011;18592;49.708;10.900;2023-04-02T09:37:31;0.70;;;0.60;;
21432;SDS011;18592;49.708;10.900;2023-04-02T09:39:35;0.70;;;0.70;;
21432;SDS011;18592;49.708;10.900;2023-04-02T09:41:37;0.80;;;0.57;;
21432;SDS011;18592;49.708;10.900;2023-04-02T09:43:38;0.85;;;0.60;;
21432;SDS011;18592;49.708;10.900;2023-04-02T09:45:43;0.50;;;0.50;;
21432;SDS011;18592;49.708;10.900;2023-04-02T09:47:56;0.60;;;0.50;;
21432;SDS011;18592;49.708;10.900;2023-04-02T09:50:11;0.57;;;0.50;;
21432;SDS011;18592;49.708;10.900;2023-04-02T09:54:30;1.70;;;0.60;;
21432;SDS011;18592;49.708;10.900;2023-04-02T09:56:35;0.60;;;0.52;;
21432;SDS011;18592;49.708;10.900;2023-04-02T09:58:38;0.43;;;0.43;;
21432;SDS011;18592;49.708;10.900;2023-04-02T10:00:48;1.23;;;0.60;;
21432;SDS011;18592;49.708;10.900;2023-04-02T10:03:02;1.67;;;0.70;;
21432;SDS011;18592;49.708;10.900;2023-04-02T10:05:20;0.70;;;0.63;;
21432;SDS011;18592;49.708;10.900;2023-04-02T10:07:42;1.33;;;1.00;;
21432;SDS011;18592;49.708;10.900;2023-04-02T10:09:47;1.52;;;1.10;;
21432;SDS011;18592;49.708;10.900;2023-04-02T10:11:59;0.98;;;0.88;;
21432;SDS011;18592;49.708;10.900;2023-04-02T10:14:03;1.05;;;0.68;;
21432;SDS011;18592;49.708;10.900;2023-04-02T10:16:21;0.60;;;0.60;;
21432;SDS011;18592;49.708;10.900;2023-04-02T10:18:40;0.93;;;0.82;;
21432;SDS011;18592;49.708;10.900;2023-04-02T10:20:49;1.13;;;1.00;;
21432;SDS011;18592;49.708;10.900;2023-04-02T10:22:53;1.77;;;1.40;;
21432;SDS011;18592;49.708;10.900;2023-04-02T10:24:54;2.88;;;1.33;;
21432;SDS011;18592;49.708;10.900;2023-04-02T10:27:06;2.25;;;1.42;;
21432;SDS011;18592;49.708;10.900;2023-04-02T10:31:39;1.00;;;0.88;;
21432;SDS011;18592;49.708;10.900;2023-04-02T10:33:56;0.88;;;0.60;;
21432;SDS011;18592;49.708;10.900;2023-04-02T10:36:11;0.75;;;0.60;;
21432;SDS011;18592;49.708;10.900;2023-04-02T10:46:13;0.40;;;0.40;;
21432;SDS011;18592;49.708;10.900;2023-04-02T10:48:50;0.57;;;0.55;;
21432;SDS011;18592;49.708;10.900;2023-04-02T10:51:06;0.60;;;0.60;;
21432;SDS011;18592;49.708;10.900;2023-04-02T10:55:57;0.75;;;0.60;;
21432;SDS011;18592;49.708;10.900;2023-04-02T10:58:07;0.90;;;0.70;;
21432;SDS011;18592;49.708;10.900;2023-04-02T11:00:30;1.00;;;0.90;;
21432;SDS011;18592;49.708;10.900;2023-04-02T11:02:41;1.15;;;0.80;;
21432;SDS011;18592;49.708;10.900;2023-04-02T11:05:11;1.00;;;0.90;;
21432;SDS011;18592;49.708;10.900;2023-04-02T11:07:25;0.60;;;0.60;;
21432;SDS011;18592;49.708;10.900;2023-04-02T11:09:31;0.73;;;0.73;;
21432;SDS011;18592;49.708;10.900;2023-04-02T11:11:38;0.60;;;0.60;;
21432;SDS011;18592;49.708;10.900;2023-04-02T11:13:56;0.75;;;0.60;;
21432;SDS011;18592;49.708;10.900;2023-04-02T11:16:01;0.73;;;0.60;;
21432;SDS011;18592;49.708;10.900;2023-04-02T11:18:03;0.65;;;0.65;;
21432;SDS011;18592;49.708;10.900;2023-04-02T11:23:03;0.50;;;0.50;;
21432;SDS011;18592;49.708;10.900;2023-04-02T11:25:19;0.50;;;0.50;;
21432;SDS011;18592;49.708;10.900;2023-04-02T11:27:34;0.60;;;0.60;;
21432;SDS011;18592;49.708;10.900;2023-04-02T11:29:41;0.60;;;0.60;;
21432;SDS011;18592;49.708;10.900;2023-04-02T11:31:45;0.60;;;0.60;;
21432;SDS011;18592;49.708;10.900;2023-04-02T11:33:48;0.52;;;0.50;;
21432;SDS011;18592;49.708;10.900;2023-04-02T11:35:50;0.90;;;0.50;;
21432;SDS011;18592;49.708;10.900;2023-04-02T11:37:56;0.40;;;0.40;;
21432;SDS011;18592;49.708;10.900;2023-04-02T11:44:24;0.40;;;0.40;;
21432;SDS011;18592;49.708;10.900;2023-04-02T11:48:32;0.90;;;0.60;;
21432;SDS011;18592;49.708;10.900;2023-04-02T11:50:41;0.60;;;0.60;;
21432;SDS011;18592;49.708;10.900;2023-04-02T11:54:52;1.10;;;1.00;;
21432;SDS011;18592;49.708;10.900;2023-04-02T11:57:06;1.23;;;1.00;;
21432;SDS011;18592;49.708;10.900;2023-04-02T11:59:35;0.63;;;0.63;;
21432;SDS011;18592;49.708;10.900;2023-04-02T12:08:53;1.10;;;1.00;;
21432;SDS011;18592;49.708;10.900;2023-04-02T12:11:06;1.73;;;1.00;;
21432;SDS011;18592;49.708;10.900;2023-04-02T12:13:16;0.98;;;0.82;;
21432;SDS011;18592;49.708;10.900;2023-04-02T12:15:33;0.80;;;0.80;;
21432;SDS011;18592;49.708;10.900;2023-04-02T12:17:40;1.40;;;1.20;;
21432;SDS011;18592;49.708;10.900;2023-04-02T12:19:45;1.17;;;1.08;;
21432;SDS011;18592;49.708;10.900;2023-04-02T12:21:52;1.38;;;1.05;;
21432;SDS011;18592;49.708;10.900;2023-04-02T12:23:54;1.50;;;1.25;;
21432;SDS011;18592;49.708;10.900;2023-04-02T12:25:59;1.40;;;1.20;;
21432;SDS011;18592;49.708;10.900;2023-04-02T12:30:13;0.93;;;0.90;;
21432;SDS011;18592;49.708;10.900;2023-04-02T12:32:26;1.35;;;0.77;;
21432;SDS011;18592;49.708;10.900;2023-04-02T12:34:30;0.70;;;0.70;;
21432;SDS011;18592;49.708;10.900;2023-04-02T12:36:32;0.60;;;0.60;;
21432;SDS011;18592;49.708;10.900;2023-04-02T12:40:57;0.70;;;0.70;;
21432;SDS011;18592;49.708;10.900;2023-04-02T12:43:03;0.70;;;0.70;;
21432;SDS011;18592;49.708;10.900;2023-04-02T12:45:23;1.25;;;0.80;;
21432;SDS011;18592;49.708;10.900;2023-04-02T12:47:29;0.93;;;0.90;;
21432;SDS011;18592;49.708;10.900;2023-04-02T12:49:38;0.80;;;0.80;;
21432;SDS011;18592;49.708;10.900;2023-04-02T12:51:46;1.05;;;0.93;;
21432;SDS011;18592;49.708;10.900;2023-04-02T12:53:49;1.02;;;0.90;;
21432;SDS011;18592;49.708;10.900;2023-04-02T12:55:52;0.70;;;0.70;;
21432;SDS011;18592;49.708;10.900;2023-04-02T12:57:59;0.82;;;0.82;;
21432;SDS011;18592;49.708;10.900;2023-04-02T13:00:03;1.15;;;1.05;;
21432;SDS011;18592;49.708;10.900;2023-04-02T13:02:17;0.70;;;0.70;;
21432;SDS011;18592;49.708;10.900;2023-04-02T13:04:20;0.90;;;0.70;;
21432;SDS011;18592;49.708;10.900;2023-04-02T13:06:22;0.95;;;0.90;;
21432;SDS011;18592;49.708;10.900;2023-04-02T13:08:28;0.90;;;0.90;;
21432;SDS011;18592;49.708;10.900;2023-04-02T13:10:33;0.60;;;0.60;;
21432;SDS011;18592;49.708;10.900;2023-04-02T13:12:42;1.10;;;1.00;;
21432;SDS011;18592;49.708;10.900;2023-04-02T13:14:44;1.33;;;1.02;;
21432;SDS011;18592;49.708;10.900;2023-04-02T13:16:52;1.08;;;0.98;;
21432;SDS011;18592;49.708;10.900;2023-04-02T13:19:40;1.73;;;1.23;;
21432;SDS011;18592;49.708;10.900;2023-04-02T13:21:29;1.90;;;1.30;;
21432;SDS011;18592;49.708;10.900;2023-04-02T13:23:35;1.33;;;1.23;;
21432;SDS011;18592;49.708;10.900;2023-04-02T13:25:38;2.33;;;1.33;;
21432;SDS011;18592;49.708;10.900;2023-04-02T13:27:45;1.25;;;1.15;;
21432;SDS011;18592;49.708;10.900;2023-04-02T13:29:49;1.13;;;1.02;;
21432;SDS011;18592;49.708;10.900;2023-04-02T13:32:09;1.10;;;1.00;;
21432;SDS011;18592;49.708;10.900;2023-04-02T13:34:15;1.13;;;1.02;;
21432;SDS011;18592;49.708;10.900;2023-04-02T13:36:22;1.38;;;1.27;;
21432;SDS011;18592;49.708;10.900;2023-04-02T13:38:27;2.05;;;1.60;;
21432;SDS011;18592;49.708;10.900;2023-04-02T13:40:30;2.22;;;1.70;;
21432;SDS011;18592;49.708;10.900;2023-04-02T13:42:37;1.70;;;1.55;;
21432;SDS011;18592;49.708;10.900;2023-04-02T13:44:44;1.52;;;1.42;;
21432;SDS011;18592;49.708;10.900;2023-04-02T13:46:48;1.73;;;1.40;;
21432;SDS011;18592;49.708;10.900;2023-04-02T13:48:52;1.50;;;1.40;;
21432;SDS011;18592;49.708;10.900;2023-04-02T13:50:56;1.60;;;1.50;;
21432;SDS011;18592;49.708;10.900;2023-04-02T13:52:59;1.45;;;1.33;;
21432;SDS011;18592;49.708;10.900;2023-04-02T13:55:11;1.40;;;1.30;;
21432;SDS011;18592;49.708;10.900;2023-04-02T13:57:14;1.85;;;1.30;;
21432;SDS011;18592;49.708;10.900;2023-04-02T13:59:16;1.30;;;1.20;;
21432;SDS011;18592;49.708;10.900;2023-04-02T14:01:24;1.58;;;1.08;;
21432;SDS011;18592;49.708;10.900;2023-04-02T14:03:26;5.13;;;1.17;;
21432;SDS011;18592;49.708;10.900;2023-04-02T14:05:44;1.42;;;1.00;;
21432;SDS011;18592;49.708;10.900;2023-04-02T14:13:14;1.73;;;1.50;;
21432;SDS011;18592;49.708;10.900;2023-04-02T14:15:31;1.98;;;1.60;;
21432;SDS011;18592;49.708;10.900;2023-04-02T14:24:40;1.90;;;1.40;;
21432;SDS011;18592;49.708;10.900;2023-04-02T14:38:55;0.95;;;0.80;;
21432;SDS011;18592;49.708;10.900;2023-04-02T14:41:04;1.73;;;1.10;;
21432;SDS011;18592;49.708;10.900;2023-04-02T14:48:02;1.02;;;0.90;;
21432;SDS011;18592;49.708;10.900;2023-04-02T14:50:16;1.33;;;1.15;;
21432;SDS011;18592;49.708;10.900;2023-04-02T14:52:22;1.30;;;1.10;;
21432;SDS011;18592;49.708;10.900;2023-04-02T14:59:51;1.33;;;1.13;;